createdAt,value
2023-04-13T00:03:40.327Z,98926.28
2023-04-13T00:08:42.866Z,98935.34
2023-04-13T00:13:47.733Z,98929.56
2023-04-13T00:18:48.318Z,98925.94
2023-04-13T00:23:48.958Z,98923.75
2023-04-13T00:28:51.363Z,98923.75
2023-04-13T00:33:52.114Z,98926.84
2023-04-13T00:38:54.641Z,98933.09
2023-04-13T00:43:59.010Z,98939.94
2023-04-13T00:49:01.742Z,98932.91
2023-04-13T00:54:02.617Z,98945.22
2023-04-13T00:59:05.065Z,98935.50
2023-04-13T01:04:05.817Z,98932.66
2023-04-13T01:09:11.135Z,98928.34
2023-04-13T01:14:19.177Z,98933.38
2023-04-13T01:19:29.351Z,98939.56
2023-04-13T01:24:37.412Z,98948.81
2023-04-13T01:29:40.228Z,98947.06
2023-04-13T01:34:41.622Z,98939.78
2023-04-13T01:39:42.239Z,98951.13
2023-04-13T01:44:53.936Z,98944.69
2023-04-13T01:50:00.839Z,98948.94
2023-04-13T01:55:09.245Z,98958.50
2023-04-13T02:00:14.879Z,98949.78
2023-04-13T02:05:18.128Z,98975.00
2023-04-13T02:10:18.875Z,98980.50
2023-04-13T02:15:21.641Z,98987.69
2023-04-13T02:20:22.264Z,99007.88
2023-04-13T02:25:23.905Z,99019.91
2023-04-13T02:30:25.954Z,99010.47
2023-04-13T02:35:27.358Z,99027.09
2023-04-13T02:40:28.841Z,99023.94
2023-04-13T02:45:31.605Z,99015.44
2023-04-13T02:50:32.393Z,99011.16
2023-04-13T02:55:39.208Z,99021.09
2023-04-13T03:00:45.820Z,99025.97
2023-04-13T03:05:50.695Z,99026.91
2023-04-13T03:10:55.021Z,99039.00
2023-04-13T03:16:00.380Z,99033.34
2023-04-13T03:21:01.532Z,99040.09
2023-04-13T03:26:10.745Z,99043.69
2023-04-13T03:31:14.431Z,99052.94
2023-04-13T03:36:15.454Z,99055.78
2023-04-13T03:41:16.219Z,99062.75
2023-04-13T03:46:21.936Z,99069.91
2023-04-13T03:51:23.316Z,99073.16
2023-04-13T03:56:26.725Z,99079.56
2023-04-13T04:01:29.583Z,99072.81
2023-04-13T04:06:31.299Z,99087.00
2023-04-13T04:11:45.829Z,99086.28
2023-04-13T04:16:50.919Z,99073.59
2023-04-13T04:21:53.001Z,99060.56
2023-04-13T04:26:58.005Z,99063.25
2023-04-13T04:32:00.073Z,99066.63
2023-04-13T04:42:10.911Z,99094.78
2023-04-13T04:47:16.848Z,99102.59
2023-04-13T04:52:34.233Z,99103.22
2023-04-13T04:57:37.023Z,99102.88
2023-04-13T05:02:41.419Z,99096.34
2023-04-13T05:07:46.086Z,99122.28
2023-04-13T05:12:48.301Z,99135.75
2023-04-13T05:17:51.171Z,99153.81
2023-04-13T05:22:53.543Z,99166.94
2023-04-13T05:27:54.159Z,99172.75
2023-04-13T05:32:57.110Z,99179.47
2023-04-13T05:38:00.145Z,99186.16
2023-04-13T05:43:04.342Z,99192.41
2023-04-13T05:48:11.936Z,99208.47
2023-04-13T05:53:12.711Z,99222.31
2023-04-13T05:58:20.164Z,99237.06
2023-04-13T06:03:27.610Z,99234.78
2023-04-13T06:08:32.439Z,99231.16
2023-04-13T06:13:34.025Z,99238.84
2023-04-13T06:18:36.066Z,99239.69
2023-04-13T06:23:37.582Z,99247.25
2023-04-13T06:28:46.995Z,99236.59
2023-04-13T06:33:51.688Z,99237.38
2023-04-13T06:38:58.170Z,99244.22
2023-04-13T06:43:59.379Z,99231.44
2023-04-13T06:49:07.465Z,99227.72
2023-04-13T06:54:09.116Z,99226.97
2023-04-13T06:59:14.614Z,99230.56
2023-04-13T07:04:16.672Z,99220.72
2023-04-13T07:09:19.825Z,99226.41
2023-04-13T07:14:20.721Z,99231.31
2023-04-13T07:19:23.766Z,99240.19
2023-04-13T07:24:25.112Z,99257.41
2023-04-13T07:29:25.985Z,99251.72
2023-04-13T07:34:32.926Z,99257.34
2023-04-13T07:39:34.352Z,99263.13
2023-04-13T07:44:36.021Z,99265.00
2023-04-13T07:49:38.733Z,99272.16
2023-04-13T07:54:43.701Z,99285.97
2023-04-13T07:59:45.965Z,99291.84
2023-04-13T08:04:49.675Z,99304.78
2023-04-13T08:09:56.107Z,99311.44
2023-04-13T08:14:57.126Z,99299.22
2023-04-13T08:19:59.286Z,99310.19
2023-04-13T08:24:59.943Z,99306.63
2023-04-13T08:30:03.329Z,99320.94
2023-04-13T08:35:15.979Z,99321.59
2023-04-13T08:40:20.027Z,99335.66
2023-04-13T08:45:21.668Z,99325.34
2023-04-13T08:50:26.927Z,99316.25
2023-04-13T08:55:29.411Z,99331.72
2023-04-13T09:00:31.296Z,99322.59
2023-04-13T09:05:37.826Z,99325.41
2023-04-13T09:10:40.595Z,99320.34
2023-04-13T09:15:49.130Z,99331.13
2023-04-13T09:21:00.794Z,99328.63
2023-04-13T09:26:06.013Z,99335.69
2023-04-13T09:31:06.960Z,99339.94
2023-04-13T09:36:13.266Z,99348.34
2023-04-13T09:41:13.986Z,99346.59
2023-04-13T09:46:15.346Z,99345.81
2023-04-13T09:51:17.950Z,99342.38
2023-04-13T09:56:20.769Z,99351.91
2023-04-13T10:01:21.876Z,99349.44
2023-04-13T10:06:24.364Z,99350.47
2023-04-13T10:11:26.341Z,99349.44
2023-04-13T10:16:58.788Z,99350.28
2023-04-13T10:22:01.278Z,99343.47
2023-04-13T10:27:12.335Z,99338.50
2023-04-13T10:32:23.042Z,99346.16
2023-04-13T10:37:28.634Z,99354.13
2023-04-13T10:47:47.225Z,99349.34
2023-04-13T10:53:00.808Z,99344.88
2023-04-13T10:58:04.357Z,99345.06
2023-04-13T11:03:06.625Z,99352.81
2023-04-13T11:08:08.934Z,99336.38
2023-04-13T11:13:09.532Z,99341.00
2023-04-13T11:18:10.863Z,99334.59
2023-04-13T11:23:18.182Z,99332.31
2023-04-13T11:28:18.914Z,99341.66
2023-04-13T11:33:25.581Z,99348.13
2023-04-13T11:38:28.048Z,99337.44
2023-04-13T11:43:28.859Z,99341.47
2023-04-13T11:48:29.627Z,99331.56
2023-04-13T11:53:33.652Z,99327.47
2023-04-13T11:58:34.567Z,99320.88
2023-04-13T12:03:47.685Z,99325.34
2023-04-13T12:09:09.067Z,99324.63
2023-04-13T12:14:46.000Z,99316.84
2023-04-13T12:19:43.365Z,99313.56
2023-04-13T12:24:45.997Z,99317.84
2023-04-13T12:29:46.848Z,99322.81
2023-04-13T12:34:48.832Z,99312.09
2023-04-13T12:39:51.906Z,99310.25
2023-04-13T12:44:52.484Z,99304.91
2023-04-13T12:49:53.058Z,99311.34
2023-04-13T12:54:55.122Z,99322.91
2023-04-13T12:59:56.153Z,99320.66
2023-04-13T13:04:57.131Z,99328.25
2023-04-13T13:10:01.074Z,99331.97
2023-04-13T13:15:03.093Z,99310.69
2023-04-13T13:20:03.853Z,99315.13
2023-04-13T13:25:08.428Z,99316.63
2023-04-13T13:30:10.099Z,99330.28
2023-04-13T13:35:11.140Z,99322.44
2023-04-13T13:40:13.837Z,99316.56
2023-04-13T13:45:14.431Z,99324.78
2023-04-13T13:50:15.044Z,99321.72
2023-04-13T13:55:22.908Z,99328.44
2023-04-13T14:00:23.873Z,99315.34
2023-04-13T14:05:24.760Z,99317.25
2023-04-13T14:10:26.750Z,99323.03
2023-04-13T14:15:27.472Z,99323.97
2023-04-13T14:20:28.121Z,99310.41
2023-04-13T14:25:30.084Z,99310.28
2023-04-13T14:30:30.870Z,99295.44
2023-04-13T14:35:31.499Z,99303.41
2023-04-13T14:40:33.484Z,99301.38
2023-04-13T14:45:34.342Z,99294.28
2023-04-13T14:50:34.986Z,99315.72
2023-04-13T14:55:37.038Z,99312.00
2023-04-13T15:00:41.029Z,99320.88
2023-04-13T15:05:42.314Z,99331.44
2023-04-13T15:10:44.515Z,99348.41
2023-04-13T15:15:46.407Z,99346.72
2023-04-13T15:20:47.178Z,99343.00
2023-04-13T15:25:49.082Z,99348.94
2023-04-13T15:30:51.785Z,99346.56
2023-04-13T15:35:53.545Z,99356.56
2023-04-13T15:40:55.640Z,99373.03
2023-04-13T15:45:56.509Z,99379.59
2023-04-13T15:51:00.817Z,99370.50
2023-04-13T15:56:02.758Z,99376.13
2023-04-13T16:01:05.086Z,99377.13
2023-04-13T16:06:05.863Z,99387.53
2023-04-13T16:11:07.834Z,99382.78
2023-04-13T16:16:08.975Z,99377.31
2023-04-13T16:21:10.881Z,99386.66
2023-04-13T16:26:13.129Z,99383.22
2023-04-13T16:31:13.778Z,99374.56
2023-04-13T16:36:14.346Z,99384.78
2023-04-13T16:41:16.827Z,99376.63
2023-04-13T16:46:17.566Z,99385.38
2023-04-13T16:51:18.168Z,99384.00
2023-04-13T16:56:21.905Z,99391.56
2023-04-13T17:01:22.588Z,99389.72
2023-04-13T17:06:23.182Z,99399.88
2023-04-13T17:11:25.274Z,99388.44
2023-04-13T17:16:29.164Z,99395.13
2023-04-13T17:21:29.805Z,99392.00
2023-04-13T17:26:32.354Z,99389.72
2023-04-13T17:31:32.985Z,99374.59
2023-04-13T17:36:33.712Z,99372.53
2023-04-13T17:41:36.049Z,99375.19
2023-04-13T17:46:36.784Z,99377.63
2023-04-13T17:51:37.412Z,99379.31
2023-04-13T17:56:41.881Z,99378.78
2023-04-13T18:01:44.011Z,99401.44
2023-04-13T18:06:45.152Z,99430.88
2023-04-13T18:11:47.496Z,99469.34
2023-04-13T18:16:48.194Z,99503.91
2023-04-13T18:21:48.906Z,99541.34
2023-04-13T18:26:51.806Z,99538.13
2023-04-13T18:31:52.540Z,99541.25
2023-04-13T18:36:53.236Z,99562.75
2023-04-13T18:41:55.251Z,99574.09
2023-04-13T18:46:56.060Z,99571.41
2023-04-13T18:51:56.821Z,99566.16
2023-04-13T18:56:58.895Z,99574.53
2023-04-13T19:01:59.723Z,99570.69
2023-04-13T19:07:00.433Z,99564.72
2023-04-13T19:12:03.607Z,99546.41
2023-04-13T19:17:05.768Z,99540.44
2023-04-13T19:22:06.468Z,99546.78
2023-04-13T19:27:08.418Z,99541.44
2023-04-13T19:32:12.724Z,99539.31
2023-04-13T19:37:13.321Z,99537.25
2023-04-13T19:42:15.460Z,99534.16
2023-04-13T19:47:16.053Z,99542.03
2023-04-13T19:52:17.028Z,99537.91
2023-04-13T19:57:19.271Z,99528.59
2023-04-13T20:02:20.114Z,99512.28
2023-04-13T20:07:20.875Z,99511.59
2023-04-13T20:12:22.791Z,99517.50
2023-04-13T20:17:23.454Z,99525.75
2023-04-13T20:22:26.254Z,99529.25
2023-04-13T20:27:29.697Z,99533.00
2023-04-13T20:32:30.580Z,99548.38
2023-04-13T20:37:31.292Z,99540.41
2023-04-13T20:42:33.542Z,99535.09
2023-04-13T20:47:35.603Z,99515.13
2023-04-13T20:52:36.744Z,99509.59
2023-04-13T20:57:41.750Z,99496.56
2023-04-13T21:02:43.375Z,99487.53
2023-04-13T21:07:45.324Z,99499.09
2023-04-13T21:12:47.284Z,99500.31
2023-04-13T21:17:48.871Z,99497.97
2023-04-13T21:22:49.489Z,99502.28
2023-04-13T21:27:51.473Z,99507.94
2023-04-13T21:32:52.172Z,99503.53
2023-04-13T21:37:52.858Z,99507.31
2023-04-13T21:42:55.040Z,99539.38
2023-04-13T21:47:55.696Z,99539.91
2023-04-13T21:52:56.536Z,99535.75
2023-04-13T21:57:58.562Z,99538.38
2023-04-13T22:02:59.350Z,99526.53
2023-04-13T22:08:00.219Z,99515.31
2023-04-13T22:13:02.216Z,99509.53
2023-04-13T22:18:02.862Z,99502.91
2023-04-13T22:23:03.448Z,99491.66
2023-04-13T22:28:05.943Z,99485.78
2023-04-13T22:33:06.934Z,99479.94
2023-04-13T22:38:07.529Z,99476.31
2023-04-13T22:43:09.483Z,99478.19
2023-04-13T22:48:10.077Z,99480.00
2023-04-13T22:53:10.766Z,99495.81
2023-04-13T22:58:12.730Z,99501.03
2023-04-13T23:03:13.524Z,99520.91
2023-04-13T23:08:14.339Z,99523.72
2023-04-13T23:13:16.316Z,99531.25
2023-04-13T23:18:16.919Z,99531.91
2023-04-13T23:23:17.531Z,99537.31
2023-04-13T23:28:19.470Z,99542.38
2023-04-13T23:33:21.222Z,99542.47
2023-04-13T23:38:21.830Z,99548.66
2023-04-13T23:43:24.038Z,99540.88
2023-04-13T23:48:26.168Z,99539.22
2023-04-13T23:53:26.763Z,99533.97
2023-04-13T23:58:28.722Z,99526.41
